createdAt,value
2019-05-07T00:01:09.085Z,29.00
2019-05-07T00:03:37.724Z,25.20
2019-05-07T00:06:06.383Z,24.27
2019-05-07T00:08:35.009Z,25.10
2019-05-07T00:11:03.777Z,29.27
2019-05-07T00:13:33.313Z,25.43
2019-05-07T00:16:02.609Z,25.00
2019-05-07T00:18:32.178Z,26.37
2019-05-07T00:21:03.374Z,24.60
2019-05-07T00:23:32.523Z,27.75
2019-05-07T00:26:02.347Z,25.97
2019-05-07T00:28:32.464Z,27.02
2019-05-07T00:31:02.907Z,29.32
2019-05-07T00:33:32.582Z,25.17
2019-05-07T00:36:09.711Z,24.43
2019-05-07T00:38:42.629Z,26.73
2019-05-07T00:41:25.947Z,23.40
2019-05-07T00:43:56.193Z,25.60
2019-05-07T00:46:27.761Z,24.65
2019-05-07T00:48:56.321Z,28.05
2019-05-07T00:51:29.936Z,27.55
2019-05-07T00:54:00.124Z,27.60
2019-05-07T00:56:29.006Z,25.40
2019-05-07T00:58:57.882Z,30.90
2019-05-07T01:01:26.739Z,55.65
2019-05-07T01:03:55.472Z,40.78
2019-05-07T01:06:26.473Z,25.48
2019-05-07T01:08:54.767Z,25.27
2019-05-07T01:11:23.407Z,24.87
2019-05-07T01:13:52.207Z,25.32
2019-05-07T01:16:22.235Z,24.52
2019-05-07T01:18:53.571Z,24.47
2019-05-07T01:21:22.710Z,25.17
2019-05-07T01:23:52.297Z,28.05
2019-05-07T01:26:22.046Z,33.58
2019-05-07T01:29:02.513Z,27.85
2019-05-07T01:31:45.219Z,27.13
2019-05-07T01:34:39.526Z,28.17
2019-05-07T01:37:08.076Z,33.13
2019-05-07T01:39:36.639Z,24.20
2019-05-07T01:42:05.268Z,28.25
2019-05-07T01:44:34.007Z,33.08
2019-05-07T01:47:02.787Z,29.10
2019-05-07T01:49:32.955Z,34.08
2019-05-07T01:52:02.562Z,30.80
2019-05-07T01:54:33.309Z,32.58
2019-05-07T01:57:02.818Z,32.88
2019-05-07T01:59:32.211Z,32.93
2019-05-07T02:02:07.863Z,32.83
2019-05-07T02:04:58.614Z,37.00
2019-05-07T02:07:33.627Z,33.67
2019-05-07T02:10:08.033Z,34.73
2019-05-07T02:12:37.470Z,33.60
2019-05-07T02:15:06.729Z,34.23
2019-05-07T02:17:35.381Z,36.40
2019-05-07T02:20:04.651Z,36.15
2019-05-07T02:22:33.351Z,35.20
2019-05-07T02:25:03.324Z,39.55
2019-05-07T02:27:32.838Z,68.55
2019-05-07T02:30:04.287Z,39.40
2019-05-07T02:32:33.561Z,48.92
2019-05-07T02:35:04.043Z,38.48
2019-05-07T02:37:48.691Z,36.65
2019-05-07T02:40:25.265Z,36.90
2019-05-07T02:45:43.974Z,39.10
2019-05-07T02:48:13.045Z,36.75
2019-05-07T02:50:56.446Z,40.33
2019-05-07T02:53:37.474Z,41.90
2019-05-07T02:56:06.197Z,42.27
2019-05-07T02:58:34.822Z,36.90
2019-05-07T03:01:04.749Z,35.58
2019-05-07T03:03:33.922Z,38.23
2019-05-07T03:06:03.172Z,37.78
2019-05-07T03:08:33.098Z,44.67
2019-05-07T03:11:03.402Z,38.75
2019-05-07T03:13:33.695Z,40.35
2019-05-07T03:16:03.735Z,38.75
2019-05-07T03:18:33.498Z,46.05
2019-05-07T03:21:12.759Z,43.83
2019-05-07T03:23:57.773Z,38.33
2019-05-07T03:26:29.437Z,43.05
2019-05-07T03:29:03.651Z,48.70
2019-05-07T03:31:57.089Z,36.70
2019-05-07T03:34:46.886Z,39.03
2019-05-07T03:37:18.776Z,38.08
2019-05-07T03:39:47.395Z,39.15
2019-05-07T03:42:16.068Z,39.63
2019-05-07T03:45:13.721Z,35.13
2019-05-07T03:47:45.059Z,34.73
2019-05-07T03:50:14.891Z,36.05
2019-05-07T03:52:43.725Z,36.45
2019-05-07T03:55:14.580Z,33.25
2019-05-07T03:57:43.828Z,34.83
2019-05-07T04:00:13.429Z,41.58
2019-05-07T04:02:43.732Z,29.20
2019-05-07T04:05:14.007Z,33.23
2019-05-07T04:07:43.432Z,35.35
2019-05-07T04:10:14.942Z,40.15
2019-05-07T04:12:44.233Z,37.28
2019-05-07T04:15:14.552Z,33.38
2019-05-07T04:17:44.046Z,29.55
2019-05-07T04:20:13.691Z,32.53
2019-05-07T04:22:43.306Z,31.60
2019-05-07T04:25:34.634Z,35.95
2019-05-07T04:28:17.967Z,32.85
2019-05-07T04:30:46.522Z,34.53
2019-05-07T04:33:16.977Z,35.60
2019-05-07T04:35:53.778Z,34.58
2019-05-07T04:38:23.810Z,34.35
2019-05-07T04:40:53.782Z,34.40
2019-05-07T04:43:23.220Z,32.85
2019-05-07T04:45:53.718Z,34.53
2019-05-07T04:48:23.300Z,30.90
2019-05-07T04:50:54.649Z,36.15
2019-05-07T04:53:23.880Z,38.17
2019-05-07T04:55:53.569Z,32.65
2019-05-07T04:58:23.736Z,41.70
2019-05-07T05:00:53.828Z,40.78
2019-05-07T05:03:24.591Z,35.73
2019-05-07T05:05:53.661Z,36.13
2019-05-07T05:08:23.425Z,32.73
2019-05-07T05:10:53.684Z,31.07
2019-05-07T05:13:23.744Z,33.78
2019-05-07T05:15:52.982Z,30.30
2019-05-07T05:18:22.169Z,28.75
2019-05-07T05:21:02.799Z,33.15
2019-05-07T05:23:38.301Z,31.95
2019-05-07T05:26:06.848Z,32.58
2019-05-07T05:28:35.390Z,32.00
2019-05-07T05:31:05.293Z,29.82
2019-05-07T05:33:34.050Z,23.83
2019-05-07T05:36:03.145Z,24.27
2019-05-07T05:38:32.928Z,27.32
2019-05-07T05:41:02.790Z,25.40
2019-05-07T05:44:03.203Z,25.12
2019-05-07T05:46:32.441Z,22.07
2019-05-07T05:49:02.594Z,20.32
2019-05-07T05:51:38.764Z,22.13
2019-05-07T05:54:35.850Z,25.70
2019-05-07T05:57:23.169Z,21.62
2019-05-07T06:00:12.646Z,24.27
2019-05-07T06:02:53.228Z,21.35
2019-05-07T06:05:47.177Z,25.90
2019-05-07T06:08:25.921Z,24.40
2019-05-07T06:11:16.944Z,23.62
2019-05-07T06:14:12.944Z,24.05
2019-05-07T06:16:49.823Z,27.62
2019-05-07T06:19:33.487Z,24.25
2019-05-07T06:22:42.322Z,24.87
2019-05-07T06:25:16.640Z,24.20
2019-05-07T06:27:45.303Z,31.10
2019-05-07T06:30:14.801Z,31.25
2019-05-07T06:32:43.432Z,31.15
2019-05-07T06:35:12.432Z,27.42
2019-05-07T06:37:42.933Z,27.50
2019-05-07T06:40:29.287Z,28.05
2019-05-07T06:43:06.287Z,29.25
2019-05-07T06:45:42.082Z,29.50
2019-05-07T06:48:12.589Z,25.32
2019-05-07T06:50:55.498Z,25.17
2019-05-07T06:53:28.664Z,30.43
2019-05-07T06:55:58.570Z,35.43
2019-05-07T06:58:53.391Z,30.35
2019-05-07T07:04:29.500Z,26.68
2019-05-07T07:07:27.301Z,27.93
2019-05-07T07:09:53.504Z,28.98
2019-05-07T07:12:26.064Z,30.82
2019-05-07T07:14:57.744Z,29.52
2019-05-07T07:17:25.523Z,26.10
2019-05-07T07:19:54.251Z,29.12
2019-05-07T07:22:23.010Z,27.90
2019-05-07T07:24:53.150Z,30.62
2019-05-07T07:27:22.684Z,29.55
2019-05-07T07:30:04.223Z,31.55
2019-05-07T07:32:35.743Z,25.85
2019-05-07T07:35:06.651Z,25.65
2019-05-07T07:37:38.663Z,30.02
2019-05-07T07:40:43.165Z,32.35
2019-05-07T07:43:12.878Z,27.05
2019-05-07T07:45:42.119Z,21.12
2019-05-07T07:48:13.017Z,21.77
2019-05-07T07:50:42.125Z,27.48
2019-05-07T07:53:12.833Z,22.27
2019-05-07T07:56:02.539Z,22.93
2019-05-07T07:58:37.911Z,21.07
2019-05-07T08:01:29.142Z,20.48
2019-05-07T08:03:57.881Z,21.05
2019-05-07T08:06:28.611Z,21.70
2019-05-07T08:08:57.131Z,22.30
2019-05-07T08:11:25.889Z,20.00
2019-05-07T08:13:54.521Z,21.48
2019-05-07T08:16:23.275Z,18.45
2019-05-07T08:18:52.235Z,18.07
2019-05-07T08:21:22.717Z,18.92
2019-05-07T08:23:52.868Z,19.40
2019-05-07T08:26:22.029Z,16.20
2019-05-07T08:28:52.408Z,17.90
2019-05-07T08:31:43.739Z,20.43
2019-05-07T08:34:28.672Z,23.92
2019-05-07T08:36:57.430Z,21.33
2019-05-07T08:39:26.172Z,21.50
2019-05-07T08:41:54.693Z,18.62
2019-05-07T08:44:27.763Z,25.75
2019-05-07T08:47:12.596Z,16.52
2019-05-07T08:49:43.364Z,12.03
2019-05-07T08:52:12.401Z,13.70
2019-05-07T08:54:42.826Z,16.52
2019-05-07T08:57:12.161Z,13.72
2019-05-07T08:59:43.726Z,13.98
2019-05-07T09:02:12.600Z,18.98
2019-05-07T09:04:41.845Z,15.90
2019-05-07T09:07:12.790Z,20.32
2019-05-07T09:12:16.758Z,15.83
2019-05-07T09:14:45.404Z,15.40
2019-05-07T09:17:14.035Z,19.10
2019-05-07T09:19:50.862Z,14.87
2019-05-07T09:22:13.341Z,14.75
2019-05-07T09:24:42.585Z,15.98
2019-05-07T09:27:32.773Z,13.72
2019-05-07T09:30:14.630Z,16.65
2019-05-07T09:32:52.161Z,15.98
2019-05-07T09:35:42.386Z,14.75
2019-05-07T09:38:12.152Z,19.17
2019-05-07T09:40:42.182Z,14.60
2019-05-07T09:43:11.770Z,23.62
2019-05-07T09:45:42.024Z,13.75
2019-05-07T09:48:11.981Z,18.27
2019-05-07T09:50:42.839Z,19.48
2019-05-07T09:53:12.724Z,15.72
2019-05-07T09:55:42.575Z,16.10
2019-05-07T09:58:12.566Z,18.80
2019-05-07T10:00:42.462Z,20.20
2019-05-07T10:03:12.635Z,18.00
2019-05-07T10:05:42.742Z,14.93
2019-05-07T10:08:12.925Z,12.85
2019-05-07T10:10:43.166Z,13.20
2019-05-07T10:13:33.008Z,12.80
2019-05-07T10:16:03.855Z,12.65
2019-05-07T10:18:32.724Z,13.95
2019-05-07T10:21:02.508Z,15.30
2019-05-07T10:23:31.305Z,17.07
2019-05-07T10:26:01.811Z,15.03
2019-05-07T10:28:32.118Z,17.80
2019-05-07T10:31:01.036Z,16.87
2019-05-07T10:33:31.769Z,15.83
2019-05-07T10:36:02.064Z,18.55
2019-05-07T10:38:31.039Z,14.60
2019-05-07T10:40:59.773Z,17.23
2019-05-07T10:43:28.486Z,19.15
2019-05-07T10:46:12.852Z,17.25
2019-05-07T10:51:16.600Z,19.10
2019-05-07T10:53:45.339Z,16.35
2019-05-07T10:56:13.867Z,19.02
2019-05-07T10:58:42.653Z,14.85
2019-05-07T11:01:12.788Z,20.57
2019-05-07T11:03:41.429Z,16.40
2019-05-07T11:06:11.965Z,19.95
2019-05-07T11:08:42.738Z,17.42
2019-05-07T11:11:11.413Z,15.48
2019-05-07T11:13:42.111Z,16.27
2019-05-07T11:16:12.848Z,21.25
2019-05-07T11:18:46.199Z,13.90
2019-05-07T11:21:14.920Z,16.77
2019-05-07T11:23:43.605Z,15.40
2019-05-07T11:26:12.331Z,15.18
2019-05-07T11:28:40.865Z,14.20
2019-05-07T11:31:09.511Z,14.78
2019-05-07T11:33:38.050Z,12.90
2019-05-07T11:36:06.565Z,14.30
2019-05-07T11:38:35.280Z,12.75
2019-05-07T11:41:04.050Z,15.38
2019-05-07T11:43:53.873Z,13.25
2019-05-07T11:46:25.581Z,14.18
2019-05-07T11:49:18.854Z,9.65
2019-05-07T11:51:53.566Z,12.58
2019-05-07T11:54:22.199Z,11.83
2019-05-07T11:56:52.272Z,13.15
2019-05-07T11:59:22.013Z,12.73
2019-05-07T12:01:55.557Z,12.37
2019-05-07T12:04:24.100Z,13.38
2019-05-07T12:06:52.717Z,9.98
2019-05-07T12:09:21.864Z,13.88
2019-05-07T12:11:52.065Z,13.68
2019-05-07T12:14:30.713Z,14.38
2019-05-07T12:16:51.215Z,14.75
2019-05-07T12:19:19.757Z,12.47
2019-05-07T12:21:48.431Z,13.43
2019-05-07T12:24:17.082Z,13.08
2019-05-07T12:26:45.602Z,14.45
2019-05-07T12:29:14.356Z,13.15
2019-05-07T12:32:08.648Z,11.43
2019-05-07T12:34:42.335Z,16.07
2019-05-07T12:37:12.289Z,12.18
2019-05-07T12:39:42.335Z,10.08
2019-05-07T12:42:12.057Z,10.38
2019-05-07T12:44:42.538Z,11.93
2019-05-07T12:47:12.012Z,13.95
2019-05-07T12:49:42.737Z,14.40
2019-05-07T12:52:19.662Z,13.30
2019-05-07T12:54:55.550Z,13.85
2019-05-07T12:57:24.304Z,13.68
2019-05-07T12:59:53.029Z,21.42
2019-05-07T13:02:44.343Z,20.55
2019-05-07T13:05:12.820Z,17.23
2019-05-07T13:07:52.534Z,14.13
2019-05-07T13:10:21.914Z,17.62
2019-05-07T13:12:52.619Z,17.23
2019-05-07T13:15:27.403Z,16.00
2019-05-07T13:17:52.082Z,20.30
2019-05-07T13:20:22.653Z,18.77
2019-05-07T13:22:51.374Z,15.65
2019-05-07T13:25:21.599Z,17.77
2019-05-07T13:27:52.142Z,19.70
2019-05-07T13:30:22.231Z,23.67
2019-05-07T13:32:52.687Z,24.25
2019-05-07T13:35:21.408Z,24.00
2019-05-07T13:38:11.861Z,22.75
2019-05-07T13:41:02.967Z,22.73
2019-05-07T13:43:36.944Z,23.42
2019-05-07T13:46:12.105Z,23.22
2019-05-07T13:48:43.942Z,23.00
2019-05-07T13:51:13.269Z,21.75
2019-05-07T13:53:42.756Z,18.40
2019-05-07T13:56:12.869Z,17.95
2019-05-07T13:58:42.884Z,20.75
2019-05-07T14:01:28.417Z,14.33
2019-05-07T14:03:57.166Z,17.85
2019-05-07T14:06:38.166Z,20.60
2019-05-07T14:09:15.559Z,15.25
2019-05-07T14:11:44.307Z,16.15
2019-05-07T14:14:13.088Z,12.07
2019-05-07T14:16:44.680Z,15.80
2019-05-07T14:19:13.034Z,29.15
2019-05-07T14:21:42.302Z,18.70
2019-05-07T14:24:12.320Z,16.77
2019-05-07T14:26:42.396Z,17.73
2019-05-07T14:29:11.152Z,20.97
2019-05-07T14:31:39.680Z,20.12
2019-05-07T14:34:17.581Z,17.35
2019-05-07T14:36:59.218Z,19.48
2019-05-07T14:39:27.822Z,17.67
2019-05-07T14:41:58.894Z,17.45
2019-05-07T14:44:46.675Z,22.62
2019-05-07T14:47:16.611Z,21.07
2019-05-07T14:49:45.433Z,21.50
2019-05-07T14:52:14.163Z,23.52
2019-05-07T14:54:42.919Z,22.27
2019-05-07T14:57:11.699Z,21.45
2019-05-07T14:59:40.354Z,23.70
2019-05-07T15:02:09.599Z,25.77
2019-05-07T15:04:38.339Z,23.50
2019-05-07T15:07:07.104Z,19.15
2019-05-07T15:09:35.847Z,21.82
2019-05-07T15:12:04.484Z,18.62
2019-05-07T15:14:33.323Z,16.60
2019-05-07T15:17:22.163Z,23.47
2019-05-07T15:19:52.093Z,21.57
2019-05-07T15:22:46.181Z,24.85
2019-05-07T15:25:04.376Z,15.43
2019-05-07T15:27:33.387Z,18.57
2019-05-07T15:30:02.434Z,21.02
2019-05-07T15:32:32.278Z,21.42
2019-05-07T15:35:02.229Z,20.45
2019-05-07T15:37:32.152Z,18.15
2019-05-07T15:40:02.464Z,19.27
2019-05-07T15:42:32.809Z,22.90
2019-05-07T15:45:02.349Z,16.77
2019-05-07T15:47:38.033Z,16.82
2019-05-07T15:50:07.148Z,17.90
2019-05-07T15:53:01.757Z,21.05
2019-05-07T15:55:30.796Z,18.50
2019-05-07T15:57:59.634Z,13.43
2019-05-07T16:00:30.285Z,17.62
2019-05-07T16:03:06.988Z,16.00
2019-05-07T16:05:37.408Z,17.07
2019-05-07T16:08:08.703Z,18.50
2019-05-07T16:10:37.446Z,17.62
2019-05-07T16:13:07.006Z,16.25
2019-05-07T16:15:35.694Z,18.90
2019-05-07T16:18:08.296Z,14.65
2019-05-07T16:20:36.879Z,16.10
2019-05-07T16:23:14.999Z,15.55
2019-05-07T16:25:39.244Z,15.45
2019-05-07T16:28:08.006Z,17.35
2019-05-07T16:30:36.695Z,16.80
2019-05-07T16:33:06.177Z,18.07
2019-05-07T16:35:34.875Z,13.32
2019-05-07T16:38:03.511Z,17.40
2019-05-07T16:40:32.442Z,16.12
2019-05-07T16:43:02.811Z,16.60
2019-05-07T16:45:32.035Z,15.95
2019-05-07T16:48:03.026Z,15.80
2019-05-07T16:50:32.648Z,17.65
2019-05-07T16:53:02.873Z,17.82
2019-05-07T16:55:36.790Z,14.45
2019-05-07T16:58:23.293Z,15.95
2019-05-07T17:00:55.541Z,17.23
2019-05-07T17:03:31.860Z,16.35
2019-05-07T17:06:01.809Z,17.17
2019-05-07T17:08:46.067Z,15.45
2019-05-07T17:11:14.734Z,15.03
2019-05-07T17:13:43.280Z,12.10
2019-05-07T17:16:12.332Z,13.28
2019-05-07T17:18:41.139Z,14.40
2019-05-07T17:21:09.879Z,13.93
2019-05-07T17:23:44.157Z,13.50
2019-05-07T17:26:09.267Z,14.03
2019-05-07T17:28:37.814Z,17.98
2019-05-07T17:31:06.528Z,14.15
2019-05-07T17:33:35.155Z,16.05
2019-05-07T17:36:03.919Z,16.97
2019-05-07T17:38:32.577Z,18.60
2019-05-07T17:41:10.771Z,14.68
2019-05-07T17:43:32.513Z,15.25
2019-05-07T17:46:02.858Z,18.02
2019-05-07T17:48:32.642Z,13.75
2019-05-07T17:51:24.182Z,14.78
2019-05-07T17:53:59.720Z,14.38
2019-05-07T17:56:24.635Z,18.82
2019-05-07T17:58:53.492Z,14.85
2019-05-07T18:01:29.738Z,18.73
2019-05-07T18:03:58.440Z,14.53
2019-05-07T18:06:26.993Z,13.10
2019-05-07T18:08:55.690Z,17.80
2019-05-07T18:11:24.507Z,16.23
2019-05-07T18:13:53.027Z,13.28
2019-05-07T18:16:36.601Z,12.73
2019-05-07T18:19:05.304Z,14.30
2019-05-07T18:21:33.967Z,13.45
2019-05-07T18:24:13.068Z,15.95
2019-05-07T18:26:33.927Z,18.02
2019-05-07T18:29:02.831Z,16.05
2019-05-07T18:31:49.742Z,17.15
2019-05-07T18:34:18.583Z,14.63
2019-05-07T18:36:47.519Z,13.83
2019-05-07T18:39:19.920Z,14.15
2019-05-07T18:43:33.224Z,16.00
2019-05-07T18:46:02.444Z,21.45
2019-05-07T18:48:31.171Z,15.20
2019-05-07T18:51:02.545Z,20.43
2019-05-07T18:54:42.962Z,33.90
2019-05-07T18:57:11.891Z,13.43
2019-05-07T18:59:42.316Z,12.05
2019-05-07T19:02:11.163Z,15.48
2019-05-07T19:04:39.709Z,16.42
2019-05-07T19:07:08.345Z,19.98
2019-05-07T19:09:37.003Z,15.28
2019-05-07T19:12:07.477Z,15.55
2019-05-07T19:14:36.240Z,12.55
2019-05-07T19:17:04.848Z,19.30
2019-05-07T19:19:33.644Z,16.90
2019-05-07T19:22:02.312Z,15.30
2019-05-07T19:24:42.273Z,16.45
2019-05-07T19:27:02.162Z,15.30
2019-05-07T19:29:32.627Z,15.48
2019-05-07T19:32:03.215Z,35.92
2019-05-07T19:34:32.521Z,16.85
2019-05-07T19:37:02.613Z,15.13
2019-05-07T19:39:32.513Z,20.27
2019-05-07T19:42:02.578Z,17.87
2019-05-07T19:44:31.417Z,21.15
2019-05-07T19:47:02.025Z,19.07
2019-05-07T19:49:32.515Z,17.10
2019-05-07T19:52:01.828Z,23.70
2019-05-07T19:54:32.382Z,19.27
2019-05-07T19:57:02.681Z,17.40
2019-05-07T19:59:32.630Z,21.57
2019-05-07T20:02:03.546Z,19.98
2019-05-07T20:04:32.252Z,21.33
2019-05-07T20:07:02.881Z,21.17
2019-05-07T20:09:34.072Z,22.15
2019-05-07T20:12:02.820Z,21.23
2019-05-07T20:14:33.053Z,23.85
2019-05-07T20:17:01.776Z,20.52
2019-05-07T20:19:32.714Z,22.58
2019-05-07T20:22:02.079Z,24.32
2019-05-07T20:24:32.628Z,25.37
2019-05-07T20:27:03.077Z,22.35
2019-05-07T20:29:32.441Z,22.52
2019-05-07T20:32:01.170Z,19.73
2019-05-07T20:34:29.838Z,21.05
2019-05-07T20:36:58.673Z,25.40
2019-05-07T20:39:27.249Z,22.37
2019-05-07T20:41:55.885Z,26.80
2019-05-07T20:44:24.710Z,22.70
2019-05-07T20:46:53.727Z,25.45
2019-05-07T20:49:22.649Z,23.85
2019-05-07T20:51:52.605Z,23.52
2019-05-07T20:54:32.561Z,27.85
2019-05-07T20:57:23.716Z,29.10
2019-05-07T20:59:52.519Z,27.05
2019-05-07T21:02:22.732Z,26.57
2019-05-07T21:04:51.937Z,24.60
2019-05-07T21:07:22.233Z,32.58
2019-05-07T21:09:52.920Z,30.82
2019-05-07T21:12:22.491Z,33.35
2019-05-07T21:14:52.488Z,30.88
2019-05-07T21:17:22.679Z,25.30
2019-05-07T21:19:52.073Z,28.65
2019-05-07T21:22:22.610Z,26.42
2019-05-07T21:24:53.207Z,24.95
2019-05-07T21:27:22.033Z,25.50
2019-05-07T21:29:52.637Z,31.45
2019-05-07T21:32:23.070Z,27.77
2019-05-07T21:34:52.691Z,28.42
2019-05-07T21:37:22.871Z,29.25
2019-05-07T21:39:53.176Z,29.05
2019-05-07T21:42:22.822Z,28.32
2019-05-07T21:44:52.640Z,28.70
2019-05-07T21:47:22.215Z,29.95
2019-05-07T21:49:54.896Z,30.70
2019-05-07T21:52:22.200Z,31.20
2019-05-07T21:55:02.233Z,30.62
2019-05-07T21:57:38.311Z,30.05
2019-05-07T22:00:13.691Z,26.95
2019-05-07T22:02:42.320Z,32.50
2019-05-07T22:05:11.777Z,28.87
2019-05-07T22:07:40.500Z,31.48
2019-05-07T22:10:09.224Z,28.77
2019-05-07T22:12:37.761Z,28.00
2019-05-07T22:15:07.000Z,30.68
2019-05-07T22:17:35.621Z,34.25
2019-05-07T22:20:04.428Z,30.08
2019-05-07T22:22:33.071Z,31.73
2019-05-07T22:25:04.967Z,32.63
2019-05-07T22:27:32.778Z,30.35
2019-05-07T22:30:02.488Z,29.77
2019-05-07T22:32:38.646Z,26.42
2019-05-07T22:35:12.580Z,33.00
2019-05-07T22:37:41.103Z,33.83
2019-05-07T22:40:12.120Z,34.25
2019-05-07T22:42:40.663Z,29.72
2019-05-07T22:45:11.988Z,27.17
2019-05-07T22:47:42.002Z,29.27
2019-05-07T22:50:12.002Z,32.28
2019-05-07T22:52:40.997Z,33.40
2019-05-07T22:55:09.805Z,30.32
2019-05-07T22:58:00.804Z,28.52
2019-05-07T23:00:38.639Z,28.47
2019-05-07T23:03:07.159Z,26.35
2019-05-07T23:05:35.797Z,30.65
2019-05-07T23:08:04.506Z,29.85
2019-05-07T23:10:33.442Z,28.95
2019-05-07T23:13:02.406Z,24.23
2019-05-07T23:15:32.183Z,28.57
2019-05-07T23:18:04.138Z,31.00
2019-05-07T23:20:32.018Z,26.17
2019-05-07T23:23:00.717Z,26.30
2019-05-07T23:25:29.333Z,28.45
2019-05-07T23:27:57.882Z,24.25
2019-05-07T23:30:26.490Z,23.15
2019-05-07T23:32:55.028Z,20.75
2019-05-07T23:35:23.572Z,28.02
2019-05-07T23:37:53.022Z,25.08
2019-05-07T23:40:35.916Z,24.95
2019-05-07T23:43:06.107Z,27.98
2019-05-07T23:45:34.630Z,29.10
2019-05-07T23:48:03.359Z,23.73
2019-05-07T23:50:32.436Z,28.80
2019-05-07T23:53:02.229Z,23.98
2019-05-07T23:55:31.823Z,24.37
2019-05-07T23:58:02.940Z,22.37
